This is the latest recevied weather packets stored in our database for station/object KQ4OSL. If no packets are shown the sender has not sent any weather packets the latest 10 day(s).
| Time | Temp. | Humidity | Pressure | Rain* | Wind** | Luminosity | Snow |
|---|---|---|---|---|---|---|---|
| 1787515192 | 31.67° C | 66% | 1017.4 hPa | 0 mm | - | 564 W/m² | - |
| 1787514889 | 30.56° C | 70% | 1017.3 hPa | 0 mm | - | 609 W/m² | - |
| 1787514584 | 30.56° C | 71% | 1017.3 hPa | 0 mm | - | 112 W/m² | - |
| 1787514280 | 30° C | 71% | 1017.4 hPa | 0 mm | - | 628 W/m² | - |
| 1787513980 | 30.56° C | 69% | 1017.5 hPa | 0 mm | - | 612 W/m² | - |
| 1787513675 | 31.67° C | 70% | 1017.5 hPa | 0 mm | - | 113 W/m² | - |
| 1787513371 | 30.56° C | 73% | 1017.6 hPa | 0 mm | - | 647 W/m² | - |
| 1787513067 | 30.56° C | 70% | 1017.5 hPa | 0 mm | - | 155 W/m² | - |
| 1787512763 | 31.11° C | 70% | 1017.6 hPa | 0 mm | - | 667 W/m² | - |
| 1787512459 | 30° C | 75% | 1017.6 hPa | 0 mm | - | 226 W/m² | - |
| 1787512154 | 30.56° C | 72% | 1017.6 hPa | 0 mm | - | 109 W/m² | - |
| 1787511849 | 30.56° C | 70% | 1017.7 hPa | 0 mm | - | 113 W/m² | - |
| 1787511549 | 31.11° C | 71% | 1017.8 hPa | 0 mm | - | 326 W/m² | - |
| 1787511248 | 30.56° C | 70% | 1017.8 hPa | 0 mm | - | 730 W/m² | - |
| 1787510948 | 31.11° C | 69% | 1017.8 hPa | 0 mm | - | 168 W/m² | - |
| 1787510643 | 30.56° C | 71% | 1017.9 hPa | 0 mm | - | 256 W/m² | - |
| 1787510338 | 31.11° C | 72% | 1017.8 hPa | 0 mm | - | 181 W/m² | - |
| 1787510034 | 31.67° C | 69% | 1017.9 hPa | 0 mm | - | 320 W/m² | - |
| 1787509730 | 31.11° C | 71% | 1017.9 hPa | 0 mm | - | 752 W/m² | - |
| 1787509426 | 31.11° C | 69% | 1018 hPa | 0 mm | - | 679 W/m² | - |
| 1787509122 | 31.11° C | 70% | 1018 hPa | 0 mm | - | 751 W/m² | - |
| 1787508818 | 30.56° C | 74% | 1018.3 hPa | 0 mm | - | 779 W/m² | - |
| 1787508517 | 30° C | 74% | 1018.3 hPa | 0 mm | - | 169 W/m² | - |
| 1787508215 | 30° C | 73% | 1018.5 hPa | 0 mm | - | 221 W/m² | - |
| 1787507910 | 30.56° C | 71% | 1018.5 hPa | 0 mm | - | 202 W/m² | - |
* Rain latest hour (hover to see other rain measurements)
** Current wind speed in m/s (hover to see current wind gust speed)